Lexington, NE

12:14 AM CDT on October 20, 2017 (GMT -0500)
Kelly

Weather History for KLXN - March, 2014

Change the Weather History Date:

Sunday, March 16, 2014

  Actual Average Record
Temperature  
Mean Temperature 34 °F -  
Max Temperature 47 °F 48 °F 90 °F (2015)
Min Temperature 22 °F 24 °F 14 °F (2002)
Degree Days  
Heating Degree Days 30    
Moisture  
Dew Point 23 °F    
Average Humidity 65    
Maximum Humidity 89    
Minimum Humidity 38    
Precipitation  
Precipitation 0.00 in - - ()
Sea Level Pressure  
Sea Level Pressure 30.22 in    
Wind  
Wind Speed 11 mph (North)    
Max Wind Speed 18 mph    
Max Gust Speed 26 mph    
Visibility 10 miles    
Events      
Averages and records for this station are not official NWS values.
T = Trace of Precipitation, MM = Missing Value Source: NWS Daily Summary

Daily Weather History Graph

Daily Weather History Graph

Search for Another Location

Airport or City:

Trip Planner

Search our weather history database for the weather conditions in past years. The results will help you decide how hot, cold, wet, or windy it might be!

Date:

Astronomy

Mar. 16, 2014 Rise Set
Actual Time 7:49 AM CDT 7:46 PM CDT
Civil Twilight 7:21 AM CDT 8:14 PM CDT
Nautical Twilight 6:49 AM CDT 8:46 PM CDT
Astronomical Twilight 6:17 AM CDT 9:18 PM CDT
Moon 8:06 PM CDT (3/16) 7:33 AM CDT (3/16)
Length of Visible Light 12h 52m
Length of Day
11h 57m
Full, 100% of the Moon is Illuminated
Mar 16
Full
Mar 16
Full
Mar 23
Last Quarter
Mar 30
New
Apr 7
First Quarter

Hourly Weather History & Observations

Time (CDT) Temp. Windchill Dew Point Humidity Pressure Visibility Wind Dir Wind Speed Gust Speed Precip Events Conditions
12:15 AM 32.0 °F 20.8 °F 26.2 °F 79% 30.28 in 10.0 mi NNE 17.3 mph 20.7 mph N/A   Overcast
12:35 AM 32.0 °F 20.8 °F 26.6 °F 80% 30.29 in 10.0 mi North 17.3 mph 21.9 mph N/A   Overcast
12:55 AM 31.6 °F 20.4 °F 26.1 °F 80% 30.29 in 10.0 mi North 17.3 mph 26.5 mph N/A   Overcast
1:15 AM 31.1 °F 20.1 °F 25.7 °F 80% 30.29 in 10.0 mi North 16.1 mph 25.3 mph N/A   Overcast
1:35 AM 31.1 °F 19.3 °F 26.1 °F 82% 30.30 in 10.0 mi North 18.4 mph - N/A   Overcast
1:55 AM 31.1 °F 20.1 °F 26.2 °F 82% 30.32 in 10.0 mi North 16.1 mph - N/A   Overcast
2:15 AM 31.1 °F 20.5 °F 25.5 °F 80% 30.33 in 10.0 mi North 15.0 mph 18.4 mph N/A   Overcast
2:35 AM 30.7 °F 20.9 °F 25.5 °F 81% 30.33 in 10.0 mi NNE 12.7 mph - N/A   Overcast
2:55 AM 30.6 °F 21.2 °F 25.7 °F 82% 30.32 in 10.0 mi NNE 11.5 mph - N/A   Overcast
3:15 AM 30.2 °F 18.9 °F 25.2 °F 82% 30.32 in 10.0 mi NNE 16.1 mph - N/A   Overcast
3:35 AM 30.0 °F 20.5 °F 24.6 °F 80% 30.33 in 10.0 mi NNE 11.5 mph 20.7 mph N/A   Overcast
3:55 AM 29.3 °F 20.2 °F 23.7 °F 80% 30.33 in 10.0 mi NNE 10.4 mph - N/A   Overcast
4:15 AM 29.1 °F 21.3 °F 23.7 °F 80% 30.33 in 10.0 mi NNE 8.1 mph - N/A   Overcast
4:35 AM 28.4 °F 18.5 °F 23.5 °F 82% 30.33 in 10.0 mi NNE 11.5 mph - N/A   Overcast
4:55 AM 28.0 °F 17.0 °F 23.0 °F 81% 30.32 in 10.0 mi NNE 13.8 mph - N/A   Overcast
5:15 AM 27.5 °F 16.3 °F 22.1 °F 80% 30.32 in 10.0 mi NNE 13.8 mph - N/A   Overcast
5:35 AM 27.1 °F 18.2 °F 21.2 °F 78% 30.32 in 10.0 mi NNE 9.2 mph - N/A   Overcast
5:55 AM 26.8 °F 17.7 °F 21.2 °F 79% 30.32 in 10.0 mi NNE 9.2 mph - N/A   Overcast
6:15 AM 26.4 °F 17.3 °F 21.0 °F 80% 30.32 in 10.0 mi North 9.2 mph - N/A   Overcast
6:35 AM 25.0 °F 14.8 °F 20.8 °F 84% 30.32 in 10.0 mi North 10.4 mph - N/A   Overcast
6:55 AM 23.7 °F 15.6 °F 20.1 °F 86% 30.32 in 10.0 mi North 6.9 mph - N/A   Mostly Cloudy
7:15 AM 22.8 °F 13.6 °F 19.8 °F 88% 30.33 in 10.0 mi North 8.1 mph - N/A   Scattered Clouds
7:35 AM 23.4 °F 12.2 °F 20.3 °F 88% 30.33 in 10.0 mi North 11.5 mph - N/A   Scattered Clouds
7:55 AM 23.7 °F 17.8 °F 20.8 °F 89% 30.34 in 10.0 mi NNE 4.6 mph - N/A   Mostly Cloudy
8:15 AM 24.8 °F 15.3 °F 21.2 °F 86% 30.34 in 10.0 mi NNE 9.2 mph - N/A   Overcast
8:35 AM 25.5 °F 15.5 °F 21.2 °F 84% 30.36 in 10.0 mi North 10.4 mph - N/A   Overcast
8:55 AM 26.1 °F 16.8 °F 21.2 °F 82% 30.37 in 10.0 mi North 9.2 mph - N/A   Overcast
9:15 AM 26.1 °F 18.4 °F 20.8 °F 81% 30.36 in 10.0 mi North 6.9 mph - N/A   Overcast
9:35 AM 27.0 °F 19.5 °F 21.2 °F 79% 30.36 in 10.0 mi North 6.9 mph - N/A   Overcast
9:55 AM 27.5 °F 21.1 °F 21.2 °F 77% 30.35 in 10.0 mi North 5.8 mph - N/A   Overcast
10:15 AM 27.9 °F 20.6 °F 21.2 °F 76% 30.35 in 10.0 mi North 6.9 mph - N/A   Overcast
10:35 AM 27.9 °F 22.6 °F 21.2 °F 76% 30.35 in 10.0 mi North 4.6 mph - N/A   Overcast
10:55 AM 28.6 °F 21.5 °F 21.2 °F 74% 30.35 in 10.0 mi NNE 6.9 mph - N/A   Overcast
11:15 AM 28.9 °F 21.9 °F 21.4 °F 73% 30.34 in 10.0 mi NNW 6.9 mph - N/A   Overcast
11:35 AM 29.1 °F 24.1 °F 21.2 °F 72% 30.34 in 10.0 mi WNW 4.6 mph - N/A   Overcast
11:55 AM 29.3 °F 25.6 °F 21.2 °F 72% 30.33 in 10.0 mi North 3.5 mph - N/A   Overcast
12:20 PM 31.6 °F 25.1 °F 21.9 °F 67% 30.33 in 10.0 mi NNW 6.9 mph - N/A   Overcast
12:40 PM 32.5 °F - 22.1 °F 65% 30.31 in 10.0 mi Calm Calm - N/A   Mostly Cloudy
12:55 PM 32.7 °F 29.6 °F 22.1 °F 65% 30.31 in 10.0 mi NW 3.5 mph - N/A   Scattered Clouds
1:15 PM 33.8 °F 30.8 °F 22.1 °F 62% 30.28 in 10.0 mi NE 3.5 mph - N/A   Clear
1:35 PM 34.9 °F - 22.5 °F 61% 30.27 in 10.0 mi Calm Calm - N/A   Clear
1:55 PM 36.1 °F 33.5 °F 22.5 °F 58% 30.25 in 10.0 mi WNW 3.5 mph - N/A   Clear
2:15 PM 37.8 °F 35.3 °F 22.6 °F 54% 30.23 in 10.0 mi West 3.5 mph - N/A   Clear
2:35 PM 38.7 °F - 22.6 °F 53% 30.21 in 10.0 mi Calm Calm - N/A   Clear
2:55 PM 40.3 °F 36.3 °F 23.2 °F 51% 30.20 in 10.0 mi South 5.8 mph - N/A   Clear
3:15 PM 41.4 °F - 22.6 °F 47% 30.18 in 10.0 mi Calm Calm - N/A   Clear
3:35 PM 43.0 °F 39.5 °F 23.2 °F 46% 30.17 in 10.0 mi West 5.8 mph - N/A   Clear
3:55 PM 44.1 °F - 23.2 °F 44% 30.15 in 10.0 mi Calm Calm - N/A   Clear
4:15 PM 45.0 °F 41.8 °F 23.2 °F 42% 30.14 in 10.0 mi SW 5.8 mph - N/A   Clear
4:35 PM 45.5 °F 41.3 °F 23.2 °F 41% 30.14 in 10.0 mi SSW 8.1 mph - N/A   Clear
4:55 PM 46.6 °F - 23.0 °F 39% 30.12 in 10.0 mi South 9.2 mph - N/A   Clear
5:15 PM 46.9 °F - 22.8 °F 39% 30.11 in 10.0 mi SSW 8.1 mph - N/A   Clear
5:35 PM 46.2 °F 41.2 °F 22.8 °F 40% 30.10 in 10.0 mi SSW 10.4 mph - N/A   Clear
5:55 PM 46.8 °F - 22.6 °F 39% 30.08 in 10.0 mi SSW 10.4 mph - N/A   Clear
6:15 PM 47.1 °F - 22.5 °F 38% 30.08 in 10.0 mi SSW 8.1 mph - N/A   Clear
6:35 PM 46.8 °F - 22.5 °F 38% 30.08 in 10.0 mi South 10.4 mph - N/A   Clear
6:55 PM 46.4 °F 41.1 °F 22.6 °F 39% 30.06 in 10.0 mi South 11.5 mph - N/A   Clear
7:20 PM 43.9 °F 38.8 °F 22.6 °F 43% 30.06 in 10.0 mi South 9.2 mph - N/A   Clear
7:30 PM 43.0 °F 38.2 °F 22.8 °F 45% 30.06 in 10.0 mi SSW 8.1 mph - N/A   Clear
7:55 PM 40.5 °F 34.6 °F 23.0 °F 50% 30.04 in 10.0 mi South 9.2 mph - N/A   Clear
8:20 PM 40.1 °F 34.1 °F 23.2 °F 51% 30.02 in 10.0 mi South 9.2 mph - N/A   Clear
8:35 PM 39.9 °F 34.5 °F 23.4 °F 52% 30.02 in 10.0 mi South 8.1 mph - N/A   Clear
9:00 PM 39.2 °F 34.2 °F 23.0 °F 52% 30.02 in 10.0 mi South 6.9 mph - N/A   Clear
9:15 PM 39.2 °F 33.6 °F 23.2 °F 53% 30.01 in 10.0 mi SSE 8.1 mph - N/A   Clear
9:35 PM 38.8 °F 32.6 °F 23.0 °F 53% 29.99 in 10.0 mi SSE 9.2 mph - N/A   Clear
9:55 PM 38.7 °F 32.4 °F 22.8 °F 53% 29.99 in 10.0 mi SSE 9.2 mph - N/A   Clear
10:15 PM 38.7 °F 32.4 °F 22.3 °F 52% 29.99 in 10.0 mi SSE 9.2 mph - N/A   Clear
10:35 PM 38.7 °F 31.4 °F 22.1 °F 51% 29.99 in 10.0 mi South 11.5 mph - N/A   Clear
10:55 PM 38.3 °F 30.9 °F 21.9 °F 52% 29.98 in 10.0 mi South 11.5 mph - N/A   Clear
11:15 PM 38.3 °F 30.9 °F 21.7 °F 51% 29.97 in 10.0 mi South 11.5 mph - N/A   Clear
11:35 PM 37.8 °F 30.2 °F 21.4 °F 52% 29.97 in 10.0 mi South 11.5 mph 17.3 mph N/A   Clear
11:55 PM 37.8 °F 29.0 °F 21.2 °F 51% 29.97 in 10.0 mi South 15.0 mph 19.6 mph N/A   Clear